Delta Ios — SVAK9 — position and weather

sailwx.info

Track history (hours):
 
Tides and Currents Weather Stations Pressure Air Temp Water Temp Dewpoint Dewpoint Depression Visibility Wind Speed Wind Dir Waves Ship Positions

Delta Ios

Last reported at 2015-May-05 16:28 UTC. Time now 2015-May-05 17:18 UTC.
Position N 43°25' E 004°53'.

Length 276 m; draft 15.4 m.

Type: Ship (hazmat cat A). MMSI: 240821000.

Date/timePositionNaut miles runAvg speedWind from/ knotsBaromVisibWave heightAir tempDewpointWater temp
2015-May-05 16:28N 43°25' E 004°53'0 0.0
2015-May-05 15:28N 43°25' E 004°53'0 0.0
2015-May-05 14:31N 43°25' E 004°53'0 0.0
2015-May-05 13:25N 43°25' E 004°53'0 0.0
2015-May-05 12:31N 43°25' E 004°53'0 0.0
2015-May-05 11:31N 43°25' E 004°53'0 0.0
2015-May-05 10:31N 43°25' E 004°53'0 0.0
2015-May-05 09:31N 43°25' E 004°53'0 0.0
2015-May-05 08:31N 43°25' E 004°53'0 0.0
2015-May-05 07:25N 43°25' E 004°53'0 0.0
2015-May-05 06:31N 43°25' E 004°53'0 0.0
2015-May-05 05:31N 43°25' E 004°53'0 0.0
2015-May-05 04:31N 43°25' E 004°53'0 0.0
2015-May-05 03:28N 43°25' E 004°53'0 0.0
2015-May-05 02:25N 43°25' E 004°53'0 0.0
2015-May-05 01:31N 43°25' E 004°53'0 0.0
2015-May-05 00:31N 43°25' E 004°53'0 0.0
2015-May-04 23:31N 43°25' E 004°53'0 0.0
2015-May-04 22:31N 43°25' E 004°53'0 0.0
2015-May-04 21:31N 43°25' E 004°53'0 0.0
2015-May-04 20:31N 43°25' E 004°53'0 0.0
2015-May-04 19:31N 43°25' E 004°53'0 0.0
2015-May-04 18:31N 43°25' E 004°53'0 0.1
2015-May-04 17:34N 43°25' E 004°53'2 2.4
2015-May-04 16:33N 43°23' E 004°56'7 7.5
2015-May-04 15:34N 43°17' E 005°01'1312.4
2015-May-04 14:33N 43°04' E 005°04'9 9.5
2015-May-04 13:33N 42°57' E 004°57'1410.7
2015-May-04 12:15N 42°45' E 004°47'5511.4
2015-May-04 07:26N 42°01' E 004°03'5911.6
2015-May-04 02:18N 41°13' E 003°16'911.6
2015-May-04 01:33N 41°07' E 003°08'1211.9
2015-May-04 00:33N 40°57' E 002°58'1212.0
2015-May-03 23:33N 40°47' E 002°49'1211.9
2015-May-03 22:33N 40°38' E 002°40'1111.5
2015-May-03 21:33N 40°29' E 002°31'1111.3
2015-May-03 20:33N 40°20' E 002°22'1111.3
2015-May-03 19:33N 40°11' E 002°13'1211.6
2015-May-03 18:33N 40°01' E 002°04'1211.7
2015-May-03 17:33N 39°52' E 001°55'1212.0
2015-May-03 16:33N 39°42' E 001°46'1211.7
2015-May-03 15:32N 39°32' E 001°36'1111.4
2015-May-03 14:33N 39°24' E 001°28'1211.8
2015-May-03 13:34N 39°14' E 001°18'1211.8
2015-May-03 12:33N 39°05' E 001°09'1212.1
2015-May-03 11:33N 38°55' E 000°60'1211.8
2015-May-03 10:32N 38°45' E 000°52'1211.8
2015-May-03 09:33N 38°35' E 000°44'1111.2
2015-May-03 08:32N 38°26' E 000°35'1111.0
2015-May-03 07:33N 38°18' E 000°26'1211.7
2015-May-03 06:33N 38°08' E 000°18'1212.2
2015-May-03 05:33N 37°58' E 000°09'1211.8
2015-May-03 04:33N 37°49' W 000°00'1111.6
2015-May-03 03:34N 37°40' W 000°10'1111.3
2015-May-03 02:34N 37°31' W 000°18'1211.8
2015-May-03 01:33N 37°24' W 000°30'1211.6
2015-May-03 00:32N 37°17' W 000°42'1111.5
2015-May-02 23:33N 37°10' W 000°53'1211.5
2015-May-02 22:33N 37°04' W 001°05'1211.7
2015-May-02 21:32N 36°57' W 001°18'1311.4
2015-May-02 20:24N 36°49' W 001°30'1011.4
2015-May-02 19:32N 36°42' W 001°39'1211.7
2015-May-02 18:31N 36°35' W 001°51'1111.5
2015-May-02 17:34N 36°28' W 002°02'1211.7
2015-May-02 16:32N 36°22' W 002°14'1211.8
2015-May-02 15:30N 36°19' W 002°29'1111.9
2015-May-02 14:34N 36°18' W 002°43'1211.7
2015-May-02 13:33N 36°16' W 002°57'1211.7
2015-May-02 12:31N 36°14' W 003°12'1212.5
2015-May-02 11:32N 36°13' W 003°27'8612.4
2015-May-02 04:33N 36°00' W 005°13'1413.9
2015-May-02 03:33N 35°57' W 005°30'7912.2
2015-May-01 21:04N 35°33' W 007°03'611.7
2015-May-01 20:33N 35°30' W 007°09'1211.6
2015-May-01 19:33N 35°24' W 007°21'1211.7
2015-May-01 18:33N 35°17' W 007°32'1511.9
2015-May-01 17:15N 35°07' W 007°47'811.7
2015-May-01 16:33N 35°01' W 007°54'1311.5
2015-May-01 15:28N 34°53' W 008°06'1111.6
2015-May-01 14:33N 34°45' W 008°15'4711.4
2015-May-01 10:26N 34°12' W 008°55'1311.5
2015-May-01 09:19N 34°03' W 009°06'911.6
2015-May-01 08:33N 33°57' W 009°14'1211.6
2015-May-01 07:33N 33°49' W 009°24'1111.5
2015-May-01 06:33N 33°41' W 009°34'1211.5
2015-May-01 05:33N 33°33' W 009°44'1211.6
2015-May-01 04:33N 33°25' W 009°54'1511.4
2015-May-01 03:15N 33°14' W 010°06'811.3
2015-May-01 02:33N 33°09' W 010°13'1111.2
2015-May-01 01:33N 33°00' W 010°22'1611.2
2015-May-01 00:06N 32°48' W 010°35'611.1
2015-Apr-30 23:33N 32°44' W 010°40'  
Track history (hours):
 
Tides and Currents Weather Stations Pressure Air Temp Water Temp Dewpoint Dewpoint Depression Visibility Wind Speed Wind Dir Waves Ship Positions

Delta Ios

Last reported at 2015-May-05 16:28 UTC. Time now 2015-May-05 17:18 UTC.
Position N 43°25' E 004°53'.

Length 276 m; draft 15.4 m.

Type: Ship (hazmat cat A). MMSI: 240821000.

Date/timePositionNaut miles runAvg speedWind from/ knotsBaromVisibWave heightAir tempDewpointWater temp
2015-May-05 16:28N 43°25' E 004°53'0 0.0
2015-May-05 15:28N 43°25' E 004°53'0 0.0
2015-May-05 14:31N 43°25' E 004°53'0 0.0
2015-May-05 13:25N 43°25' E 004°53'0 0.0
2015-May-05 12:31N 43°25' E 004°53'0 0.0
2015-May-05 11:31N 43°25' E 004°53'0 0.0
2015-May-05 10:31N 43°25' E 004°53'0 0.0
2015-May-05 09:31N 43°25' E 004°53'0 0.0
2015-May-05 08:31N 43°25' E 004°53'0 0.0
2015-May-05 07:25N 43°25' E 004°53'0 0.0
2015-May-05 06:31N 43°25' E 004°53'0 0.0
2015-May-05 05:31N 43°25' E 004°53'0 0.0
2015-May-05 04:31N 43°25' E 004°53'0 0.0
2015-May-05 03:28N 43°25' E 004°53'0 0.0
2015-May-05 02:25N 43°25' E 004°53'0 0.0
2015-May-05 01:31N 43°25' E 004°53'0 0.0
2015-May-05 00:31N 43°25' E 004°53'0 0.0
2015-May-04 23:31N 43°25' E 004°53'0 0.0
2015-May-04 22:31N 43°25' E 004°53'0 0.0
2015-May-04 21:31N 43°25' E 004°53'0 0.0
2015-May-04 20:31N 43°25' E 004°53'0 0.0
2015-May-04 19:31N 43°25' E 004°53'0 0.0
2015-May-04 18:31N 43°25' E 004°53'0 0.1
2015-May-04 17:34N 43°25' E 004°53'2 2.4
2015-May-04 16:33N 43°23' E 004°56'7 7.5
2015-May-04 15:34N 43°17' E 005°01'1312.4
2015-May-04 14:33N 43°04' E 005°04'9 9.5
2015-May-04 13:33N 42°57' E 004°57'1410.7
2015-May-04 12:15N 42°45' E 004°47'5511.4
2015-May-04 07:26N 42°01' E 004°03'5911.6
2015-May-04 02:18N 41°13' E 003°16'911.6
2015-May-04 01:33N 41°07' E 003°08'1211.9
2015-May-04 00:33N 40°57' E 002°58'1212.0
2015-May-03 23:33N 40°47' E 002°49'1211.9
2015-May-03 22:33N 40°38' E 002°40'1111.5
2015-May-03 21:33N 40°29' E 002°31'1111.3
2015-May-03 20:33N 40°20' E 002°22'1111.3
2015-May-03 19:33N 40°11' E 002°13'1211.6
2015-May-03 18:33N 40°01' E 002°04'1211.7
2015-May-03 17:33N 39°52' E 001°55'1212.0
2015-May-03 16:33N 39°42' E 001°46'1211.7
2015-May-03 15:32N 39°32' E 001°36'1111.4
2015-May-03 14:33N 39°24' E 001°28'1211.8
2015-May-03 13:34N 39°14' E 001°18'1211.8
2015-May-03 12:33N 39°05' E 001°09'1212.1
2015-May-03 11:33N 38°55' E 000°60'1211.8
2015-May-03 10:32N 38°45' E 000°52'1211.8
2015-May-03 09:33N 38°35' E 000°44'1111.2
2015-May-03 08:32N 38°26' E 000°35'1111.0
2015-May-03 07:33N 38°18' E 000°26'1211.7
2015-May-03 06:33N 38°08' E 000°18'1212.2
2015-May-03 05:33N 37°58' E 000°09'1211.8
2015-May-03 04:33N 37°49' W 000°00'1111.6
2015-May-03 03:34N 37°40' W 000°10'1111.3
2015-May-03 02:34N 37°31' W 000°18'1211.8
2015-May-03 01:33N 37°24' W 000°30'1211.6
2015-May-03 00:32N 37°17' W 000°42'1111.5
2015-May-02 23:33N 37°10' W 000°53'1211.5
2015-May-02 22:33N 37°04' W 001°05'1211.7
2015-May-02 21:32N 36°57' W 001°18'1311.4
2015-May-02 20:24N 36°49' W 001°30'1011.4
2015-May-02 19:32N 36°42' W 001°39'1211.7
2015-May-02 18:31N 36°35' W 001°51'1111.5
2015-May-02 17:34N 36°28' W 002°02'1211.7
2015-May-02 16:32N 36°22' W 002°14'1211.8
2015-May-02 15:30N 36°19' W 002°29'1111.9
2015-May-02 14:34N 36°18' W 002°43'1211.7
2015-May-02 13:33N 36°16' W 002°57'1211.7
2015-May-02 12:31N 36°14' W 003°12'1212.5
2015-May-02 11:32N 36°13' W 003°27'8612.4
2015-May-02 04:33N 36°00' W 005°13'1413.9
2015-May-02 03:33N 35°57' W 005°30'7912.2
2015-May-01 21:04N 35°33' W 007°03'611.7
2015-May-01 20:33N 35°30' W 007°09'1211.6
2015-May-01 19:33N 35°24' W 007°21'1211.7
2015-May-01 18:33N 35°17' W 007°32'1511.9
2015-May-01 17:15N 35°07' W 007°47'811.7
2015-May-01 16:33N 35°01' W 007°54'1311.5
2015-May-01 15:28N 34°53' W 008°06'1111.6
2015-May-01 14:33N 34°45' W 008°15'4711.4
2015-May-01 10:26N 34°12' W 008°55'1311.5
2015-May-01 09:19N 34°03' W 009°06'911.6
2015-May-01 08:33N 33°57' W 009°14'1211.6
2015-May-01 07:33N 33°49' W 009°24'1111.5
2015-May-01 06:33N 33°41' W 009°34'1211.5
2015-May-01 05:33N 33°33' W 009°44'1211.6
2015-May-01 04:33N 33°25' W 009°54'1511.4
2015-May-01 03:15N 33°14' W 010°06'811.3
2015-May-01 02:33N 33°09' W 010°13'1111.2
2015-May-01 01:33N 33°00' W 010°22'1611.2
2015-May-01 00:06N 32°48' W 010°35'611.1
2015-Apr-30 23:33N 32°44' W 010°40'  

Dump ship's entire track history